sensor_id;sensor_type;location;lat;lon;timestamp;pressure;altitude;pressure_sealevel;temperature;humidity
22647;BME280;11490;42.726;23.268;2023-03-18T00:01:00;95649.34;;;1.74;95.24
22647;BME280;11490;42.726;23.268;2023-03-18T00:03:28;95622.53;;;1.48;95.62
22647;BME280;11490;42.726;23.268;2023-03-18T00:06:22;95643.16;;;1.67;95.17
22647;BME280;11490;42.726;23.268;2023-03-18T00:08:48;95628.03;;;1.69;94.84
22647;BME280;11490;42.726;23.268;2023-03-18T00:11:15;95633.91;;;1.71;94.58
22647;BME280;11490;42.726;23.268;2023-03-18T00:13:41;95633.91;;;1.71;93.75
22647;BME280;11490;42.726;23.268;2023-03-18T00:16:08;95635.63;;;1.56;94.47
22647;BME280;11490;42.726;23.268;2023-03-18T00:18:36;95637.00;;;1.44;95.39
22647;BME280;11490;42.726;23.268;2023-03-18T00:21:02;95618.03;;;1.26;96.38
22647;BME280;11490;42.726;23.268;2023-03-18T00:23:27;95628.59;;;1.48;96.61
22647;BME280;11490;42.726;23.268;2023-03-18T00:25:55;95605.13;;;1.47;95.38
22647;BME280;11490;42.726;23.268;2023-03-18T00:28:24;95624.78;;;1.59;94.92
22647;BME280;11490;42.726;23.268;2023-03-18T00:30:51;95625.47;;;1.53;94.83
22647;BME280;11490;42.726;23.268;2023-03-18T00:33:17;95611.19;;;1.08;96.25
22647;BME280;11490;42.726;23.268;2023-03-18T00:35:43;95611.06;;;0.94;98.11
22647;BME280;11490;42.726;23.268;2023-03-18T00:38:10;95616.09;;;1.11;98.86
22647;BME280;11490;42.726;23.268;2023-03-18T00:40:47;95608.91;;;1.05;98.29
22647;BME280;11490;42.726;23.268;2023-03-18T00:43:26;95600.78;;;0.76;99.44
22647;BME280;11490;42.726;23.268;2023-03-18T00:45:55;95613.13;;;0.51;100.00
22647;BME280;11490;42.726;23.268;2023-03-18T00:48:22;95607.31;;;0.88;100.00
22647;BME280;11490;42.726;23.268;2023-03-18T00:50:48;95593.00;;;1.07;99.73
22647;BME280;11490;42.726;23.268;2023-03-18T00:53:14;95600.16;;;1.21;97.91
22647;BME280;11490;42.726;23.268;2023-03-18T00:55:40;95565.34;;;0.72;97.77
22647;BME280;11490;42.726;23.268;2023-03-18T00:58:06;95580.34;;;1.02;98.54
22647;BME280;11490;42.726;23.268;2023-03-18T01:00:33;95580.72;;;0.99;97.53
22647;BME280;11490;42.726;23.268;2023-03-18T01:02:59;95575.59;;;1.06;97.86
22647;BME280;11490;42.726;23.268;2023-03-18T01:05:25;95577.34;;;1.22;97.98
22647;BME280;11490;42.726;23.268;2023-03-18T01:07:51;95580.28;;;1.19;97.17
22647;BME280;11490;42.726;23.268;2023-03-18T01:10:18;95564.25;;;1.05;97.94
22647;BME280;11490;42.726;23.268;2023-03-18T01:12:44;95558.19;;;1.05;96.71
22647;BME280;11490;42.726;23.268;2023-03-18T01:15:15;95570.78;;;1.09;97.35
22647;BME280;11490;42.726;23.268;2023-03-18T01:17:41;95577.00;;;1.16;96.47
22647;BME280;11490;42.726;23.268;2023-03-18T01:20:07;95578.31;;;1.21;96.16
22647;BME280;11490;42.726;23.268;2023-03-18T01:22:33;95544.22;;;1.04;94.93
22647;BME280;11490;42.726;23.268;2023-03-18T01:24:59;95566.59;;;1.39;93.92
22647;BME280;11490;42.726;23.268;2023-03-18T01:27:24;95571.03;;;1.39;93.38
22647;BME280;11490;42.726;23.268;2023-03-18T01:29:50;95556.72;;;1.33;93.24
22647;BME280;11490;42.726;23.268;2023-03-18T01:32:16;95571.63;;;1.41;93.99
22647;BME280;11490;42.726;23.268;2023-03-18T01:34:41;95561.53;;;1.30;93.23
22647;BME280;11490;42.726;23.268;2023-03-18T01:37:06;95575.72;;;1.12;93.40
22647;BME280;11490;42.726;23.268;2023-03-18T01:39:32;95580.34;;;1.02;94.13
22647;BME280;11490;42.726;23.268;2023-03-18T01:41:59;95569.59;;;0.81;96.08
22647;BME280;11490;42.726;23.268;2023-03-18T01:44:24;95569.50;;;1.05;96.10
22647;BME280;11490;42.726;23.268;2023-03-18T01:46:51;95573.13;;;1.04;94.72
22647;BME280;11490;42.726;23.268;2023-03-18T01:49:31;95572.72;;;1.24;93.83
22647;BME280;11490;42.726;23.268;2023-03-18T01:52:01;95569.47;;;1.13;94.04
22647;BME280;11490;42.726;23.268;2023-03-18T01:54:32;95562.31;;;0.99;93.60
22647;BME280;11490;42.726;23.268;2023-03-18T01:56:58;95561.03;;;0.87;95.13
22647;BME280;11490;42.726;23.268;2023-03-18T01:59:27;95548.66;;;0.57;96.21
22647;BME280;11490;42.726;23.268;2023-03-18T02:02:06;95567.88;;;0.41;98.34
22647;BME280;11490;42.726;23.268;2023-03-18T02:04:40;95552.63;;;0.36;99.01
22647;BME280;11490;42.726;23.268;2023-03-18T02:07:11;95559.84;;;0.34;99.91
22647;BME280;11490;42.726;23.268;2023-03-18T02:09:37;95547.34;;;0.69;99.95
22647;BME280;11490;42.726;23.268;2023-03-18T02:12:04;95555.63;;;0.89;97.42
22647;BME280;11490;42.726;23.268;2023-03-18T02:14:30;95547.94;;;0.79;96.67
22647;BME280;11490;42.726;23.268;2023-03-18T02:17:07;95555.22;;;0.61;98.88
22647;BME280;11490;42.726;23.268;2023-03-18T02:22:42;95535.22;;;0.52;97.76
22647;BME280;11490;42.726;23.268;2023-03-18T02:25:20;95555.25;;;0.53;99.22
22647;BME280;11490;42.726;23.268;2023-03-18T02:28:01;95547.88;;;0.40;98.73
22647;BME280;11490;42.726;23.268;2023-03-18T02:30:32;95542.47;;;0.33;100.00
22647;BME280;11490;42.726;23.268;2023-03-18T02:33:00;95557.88;;;0.53;100.00
22647;BME280;11490;42.726;23.268;2023-03-18T02:35:27;95551.91;;;0.75;97.96
22647;BME280;11490;42.726;23.268;2023-03-18T02:37:53;95549.28;;;0.67;96.81
22647;BME280;11490;42.726;23.268;2023-03-18T02:40:25;95555.31;;;0.84;96.09
22647;BME280;11490;42.726;23.268;2023-03-18T02:42:51;95555.56;;;0.42;95.76
22647;BME280;11490;42.726;23.268;2023-03-18T02:45:34;95554.25;;;0.54;96.93
22647;BME280;11490;42.726;23.268;2023-03-18T02:48:04;95553.53;;;0.76;95.95
22647;BME280;11490;42.726;23.268;2023-03-18T02:50:31;95557.22;;;0.43;93.89
22647;BME280;11490;42.726;23.268;2023-03-18T02:52:57;95556.19;;;0.68;93.78
22647;BME280;11490;42.726;23.268;2023-03-18T02:55:23;95554.75;;;0.41;94.61
22647;BME280;11490;42.726;23.268;2023-03-18T02:57:48;95556.56;;;0.41;95.30
22647;BME280;11490;42.726;23.268;2023-03-18T03:00:14;95550.69;;;0.38;95.23
22647;BME280;11490;42.726;23.268;2023-03-18T03:02:40;95554.63;;;0.18;96.25
22647;BME280;11490;42.726;23.268;2023-03-18T03:05:06;95549.22;;;0.12;96.73
22647;BME280;11490;42.726;23.268;2023-03-18T03:07:33;95527.44;;;0.03;96.61
22647;BME280;11490;42.726;23.268;2023-03-18T03:09:59;95552.00;;;0.26;96.03
22647;BME280;11490;42.726;23.268;2023-03-18T03:12:25;95554.31;;;0.13;97.21
22647;BME280;11490;42.726;23.268;2023-03-18T03:14:50;95556.78;;;0.15;96.85
22647;BME280;11490;42.726;23.268;2023-03-18T03:17:16;95525.78;;;-0.14;96.76
22647;BME280;11490;42.726;23.268;2023-03-18T03:19:41;95568.03;;;0.31;96.42
22647;BME280;11490;42.726;23.268;2023-03-18T03:22:07;95555.44;;;0.35;95.91
22647;BME280;11490;42.726;23.268;2023-03-18T03:24:33;95553.13;;;0.40;95.62
22647;BME280;11490;42.726;23.268;2023-03-18T03:26:58;95538.56;;;0.05;95.38
22647;BME280;11490;42.726;23.268;2023-03-18T03:29:24;95575.28;;;0.21;96.72
22647;BME280;11490;42.726;23.268;2023-03-18T03:31:49;95567.56;;;0.04;96.51
22647;BME280;11490;42.726;23.268;2023-03-18T03:34:15;95571.34;;;0.01;98.73
22647;BME280;11490;42.726;23.268;2023-03-18T03:36:40;95564.28;;;0.18;99.11
22647;BME280;11490;42.726;23.268;2023-03-18T03:39:07;95572.31;;;0.32;97.35
22647;BME280;11490;42.726;23.268;2023-03-18T03:41:32;95573.28;;;0.23;96.08
22647;BME280;11490;42.726;23.268;2023-03-18T03:43:58;95573.78;;;0.43;95.87
22647;BME280;11490;42.726;23.268;2023-03-18T03:46:23;95544.78;;;0.28;95.19
22647;BME280;11490;42.726;23.268;2023-03-18T03:48:49;95573.28;;;0.39;94.32
22647;BME280;11490;42.726;23.268;2023-03-18T03:51:14;95582.16;;;0.38;95.22
22647;BME280;11490;42.726;23.268;2023-03-18T03:53:40;95570.03;;;0.21;95.87
22647;BME280;11490;42.726;23.268;2023-03-18T03:56:06;95575.59;;;0.18;96.88
22647;BME280;11490;42.726;23.268;2023-03-18T03:58:33;95589.84;;;0.24;95.52
22647;BME280;11490;42.726;23.268;2023-03-18T04:00:59;95587.56;;;0.45;95.38
22647;BME280;11490;42.726;23.268;2023-03-18T04:03:25;95585.41;;;0.41;93.22
22647;BME280;11490;42.726;23.268;2023-03-18T04:05:50;95582.84;;;0.00;94.78
22647;BME280;11490;42.726;23.268;2023-03-18T04:08:15;95582.50;;;0.19;95.42
22647;BME280;11490;42.726;23.268;2023-03-18T04:10:41;95580.19;;;0.24;93.89
22647;BME280;11490;42.726;23.268;2023-03-18T04:13:07;95578.22;;;0.10;93.67
22647;BME280;11490;42.726;23.268;2023-03-18T04:15:33;95582.81;;;-0.16;95.39
22647;BME280;11490;42.726;23.268;2023-03-18T04:17:59;95572.50;;;-0.18;96.38
22647;BME280;11490;42.726;23.268;2023-03-18T04:20:29;95591.50;;;-0.24;97.86
22647;BME280;11490;42.726;23.268;2023-03-18T04:22:54;95568.69;;;-0.48;98.46
22647;BME280;11490;42.726;23.268;2023-03-18T04:25:19;95596.56;;;-0.14;98.87
22647;BME280;11490;42.726;23.268;2023-03-18T04:27:46;95600.53;;;0.06;96.92
22647;BME280;11490;42.726;23.268;2023-03-18T04:30:12;95566.72;;;-0.29;95.18
22647;BME280;11490;42.726;23.268;2023-03-18T04:32:38;95610.31;;;-0.28;97.30
22647;BME280;11490;42.726;23.268;2023-03-18T04:35:04;95598.19;;;-0.29;98.45
22647;BME280;11490;42.726;23.268;2023-03-18T04:37:29;95606.88;;;-0.29;98.67
22647;BME280;11490;42.726;23.268;2023-03-18T04:39:55;95611.00;;;-0.18;98.83
22647;BME280;11490;42.726;23.268;2023-03-18T04:42:20;95611.50;;;0.02;97.25
22647;BME280;11490;42.726;23.268;2023-03-18T04:44:46;95602.78;;;-0.07;96.63
22647;BME280;11490;42.726;23.268;2023-03-18T04:47:12;95604.78;;;-0.09;96.38
22647;BME280;11490;42.726;23.268;2023-03-18T04:49:38;95612.28;;;-0.14;95.94
22647;BME280;11490;42.726;23.268;2023-03-18T04:52:04;95626.91;;;0.05;95.08
22647;BME280;11490;42.726;23.268;2023-03-18T04:54:31;95632.25;;;-0.21;94.45
22647;BME280;11490;42.726;23.268;2023-03-18T04:56:57;95626.03;;;-0.20;95.79
22647;BME280;11490;42.726;23.268;2023-03-18T04:59:22;95630.66;;;-0.06;96.23
22647;BME280;11490;42.726;23.268;2023-03-18T05:01:47;95614.94;;;0.10;94.88
22647;BME280;11490;42.726;23.268;2023-03-18T05:04:13;95632.63;;;0.24;94.45
22647;BME280;11490;42.726;23.268;2023-03-18T05:06:38;95630.69;;;0.43;94.03
22647;BME280;11490;42.726;23.268;2023-03-18T05:09:04;95634.94;;;0.52;93.57
22647;BME280;11490;42.726;23.268;2023-03-18T05:11:30;95634.28;;;0.17;93.39
22647;BME280;11490;42.726;23.268;2023-03-18T05:13:55;95620.16;;;-0.06;94.12
22647;BME280;11490;42.726;23.268;2023-03-18T05:16:21;95612.25;;;-0.30;96.17
22647;BME280;11490;42.726;23.268;2023-03-18T05:18:47;95619.09;;;-0.46;98.32
22647;BME280;11490;42.726;23.268;2023-03-18T05:21:13;95614.19;;;-0.49;99.29
22647;BME280;11490;42.726;23.268;2023-03-18T05:23:38;95627.38;;;-0.24;98.40
22647;BME280;11490;42.726;23.268;2023-03-18T05:26:04;95622.13;;;-0.24;97.23
22647;BME280;11490;42.726;23.268;2023-03-18T05:28:30;95625.38;;;-0.22;97.62
22647;BME280;11490;42.726;23.268;2023-03-18T05:30:56;95604.88;;;-0.35;98.22
22647;BME280;11490;42.726;23.268;2023-03-18T05:33:21;95605.72;;;-0.34;99.83
22647;BME280;11490;42.726;23.268;2023-03-18T05:35:47;95632.00;;;0.14;99.66
22647;BME280;11490;42.726;23.268;2023-03-18T05:38:12;95628.06;;;0.34;98.58
22647;BME280;11490;42.726;23.268;2023-03-18T05:40:38;95623.28;;;0.54;97.33
22647;BME280;11490;42.726;23.268;2023-03-18T05:43:04;95630.63;;;0.91;97.78
22647;BME280;11490;42.726;23.268;2023-03-18T05:45:30;95628.94;;;1.06;96.77
22647;BME280;11490;42.726;23.268;2023-03-18T05:47:56;95644.38;;;1.48;95.63
22647;BME280;11490;42.726;23.268;2023-03-18T05:50:36;95631.81;;;1.67;94.19
22647;BME280;11490;42.726;23.268;2023-03-18T05:53:03;95648.84;;;1.71;92.37
22647;BME280;11490;42.726;23.268;2023-03-18T05:55:29;95642.91;;;1.46;92.86
22647;BME280;11490;42.726;23.268;2023-03-18T05:57:55;95641.94;;;1.47;93.95
22647;BME280;11490;42.726;23.268;2023-03-18T06:00:22;95647.84;;;1.41;95.21
22647;BME280;11490;42.726;23.268;2023-03-18T06:02:49;95634.75;;;1.33;94.58
22647;BME280;11490;42.726;23.268;2023-03-18T06:05:17;95650.44;;;1.49;95.16
22647;BME280;11490;42.726;23.268;2023-03-18T06:07:43;95656.31;;;1.59;95.50
22647;BME280;11490;42.726;23.268;2023-03-18T06:10:10;95642.66;;;1.25;96.84
22647;BME280;11490;42.726;23.268;2023-03-18T06:12:35;95645.25;;;1.33;96.59
22647;BME280;11490;42.726;23.268;2023-03-18T06:15:00;95644.59;;;1.39;97.09
22647;BME280;11490;42.726;23.268;2023-03-18T06:17:26;95652.22;;;1.57;97.05
22647;BME280;11490;42.726;23.268;2023-03-18T06:19:52;95654.94;;;1.71;95.79
22647;BME280;11490;42.726;23.268;2023-03-18T06:22:18;95648.47;;;1.51;97.08
22647;BME280;11490;42.726;23.268;2023-03-18T06:24:43;95647.97;;;1.47;98.76
22647;BME280;11490;42.726;23.268;2023-03-18T06:27:09;95641.00;;;1.63;98.33
22647;BME280;11490;42.726;23.268;2023-03-18T06:29:35;95641.53;;;1.89;97.62
22647;BME280;11490;42.726;23.268;2023-03-18T06:32:01;95643.59;;;1.71;97.54
22647;BME280;11490;42.726;23.268;2023-03-18T06:34:27;95644.78;;;1.68;99.14
22647;BME280;11490;42.726;23.268;2023-03-18T06:36:52;95639.44;;;1.84;98.60
22647;BME280;11490;42.726;23.268;2023-03-18T06:39:18;95628.97;;;1.76;98.78
22647;BME280;11490;42.726;23.268;2023-03-18T06:41:44;95619.53;;;1.59;98.82
22647;BME280;11490;42.726;23.268;2023-03-18T06:44:11;95630.59;;;1.46;100.00
22647;BME280;11490;42.726;23.268;2023-03-18T06:46:38;95635.38;;;2.05;100.00
22647;BME280;11490;42.726;23.268;2023-03-18T06:49:04;95622.25;;;2.42;100.00
22647;BME280;11490;42.726;23.268;2023-03-18T06:51:29;95621.09;;;2.97;96.86
22647;BME280;11490;42.726;23.268;2023-03-18T06:53:55;95625.38;;;3.27;94.17
22647;BME280;11490;42.726;23.268;2023-03-18T06:56:21;95624.56;;;4.35;91.33
22647;BME280;11490;42.726;23.268;2023-03-18T06:58:47;95638.91;;;5.24;87.62
22647;BME280;11490;42.726;23.268;2023-03-18T07:01:13;95633.03;;;5.63;85.70
22647;BME280;11490;42.726;23.268;2023-03-18T07:03:38;95618.41;;;5.73;82.99
22647;BME280;11490;42.726;23.268;2023-03-18T07:06:04;95627.22;;;5.39;83.35
22647;BME280;11490;42.726;23.268;2023-03-18T07:08:30;95629.81;;;5.33;85.09
22647;BME280;11490;42.726;23.268;2023-03-18T07:10:56;95641.22;;;6.22;81.78
22647;BME280;11490;42.726;23.268;2023-03-18T07:13:21;95631.31;;;6.57;80.11
22647;BME280;11490;42.726;23.268;2023-03-18T07:15:47;95633.75;;;6.91;78.17
22647;BME280;11490;42.726;23.268;2023-03-18T07:18:12;95629.59;;;6.16;79.98
22647;BME280;11490;42.726;23.268;2023-03-18T07:20:38;95641.03;;;6.43;80.75
22647;BME280;11490;42.726;23.268;2023-03-18T07:23:05;95628.44;;;6.98;77.17
22647;BME280;11490;42.726;23.268;2023-03-18T07:25:30;95631.72;;;6.87;78.14
22647;BME280;11490;42.726;23.268;2023-03-18T07:27:57;95642.19;;;7.79;76.56
22647;BME280;11490;42.726;23.268;2023-03-18T07:30:25;95638.38;;;8.06;74.96
22647;BME280;11490;42.726;23.268;2023-03-18T07:32:51;95646.91;;;7.70;75.11
22647;BME280;11490;42.726;23.268;2023-03-18T07:35:16;95637.09;;;7.71;76.12
22647;BME280;11490;42.726;23.268;2023-03-18T07:37:42;95643.56;;;6.78;76.44
22647;BME280;11490;42.726;23.268;2023-03-18T07:40:08;95634.50;;;7.58;76.32
22647;BME280;11490;42.726;23.268;2023-03-18T07:42:36;95644.88;;;8.17;74.61
22647;BME280;11490;42.726;23.268;2023-03-18T07:45:02;95642.75;;;7.94;72.47
22647;BME280;11490;42.726;23.268;2023-03-18T07:47:27;95634.91;;;7.55;74.68
22647;BME280;11490;42.726;23.268;2023-03-18T07:49:53;95621.53;;;7.04;76.51
22647;BME280;11490;42.726;23.268;2023-03-18T07:52:19;95624.13;;;7.43;77.54
22647;BME280;11490;42.726;23.268;2023-03-18T07:54:44;95634.53;;;7.31;77.04
22647;BME280;11490;42.726;23.268;2023-03-18T07:57:09;95637.00;;;7.07;78.54
22647;BME280;11490;42.726;23.268;2023-03-18T07:59:35;95639.06;;;6.85;79.28
22647;BME280;11490;42.726;23.268;2023-03-18T08:02:04;95628.84;;;6.69;76.79
22647;BME280;11490;42.726;23.268;2023-03-18T08:04:32;95635.78;;;6.56;78.93
22647;BME280;11490;42.726;23.268;2023-03-18T08:06:57;95624.31;;;6.36;79.98
22647;BME280;11490;42.726;23.268;2023-03-18T08:09:23;95630.94;;;5.93;81.44
22647;BME280;11490;42.726;23.268;2023-03-18T08:11:50;95619.34;;;6.00;81.88
22647;BME280;11490;42.726;23.268;2023-03-18T08:14:16;95613.22;;;5.52;82.31
22647;BME280;11490;42.726;23.268;2023-03-18T08:16:41;95611.53;;;5.38;84.10
22647;BME280;11490;42.726;23.268;2023-03-18T08:19:08;95596.81;;;5.29;85.43
22647;BME280;11490;42.726;23.268;2023-03-18T08:21:33;95594.66;;;5.39;83.68
22647;BME280;11490;42.726;23.268;2023-03-18T08:23:59;95619.53;;;5.51;85.98
22647;BME280;11490;42.726;23.268;2023-03-18T08:26:25;95620.16;;;5.88;85.11
22647;BME280;11490;42.726;23.268;2023-03-18T08:28:50;95620.03;;;6.22;83.03
22647;BME280;11490;42.726;23.268;2023-03-18T08:31:15;95613.16;;;7.20;81.98
22647;BME280;11490;42.726;23.268;2023-03-18T08:33:41;95604.72;;;7.43;81.60
22647;BME280;11490;42.726;23.268;2023-03-18T08:36:07;95617.13;;;8.06;77.04
22647;BME280;11490;42.726;23.268;2023-03-18T08:38:33;95601.19;;;8.76;75.10
22647;BME280;11490;42.726;23.268;2023-03-18T08:40:59;95599.00;;;8.98;72.29
22647;BME280;11490;42.726;23.268;2023-03-18T08:43:25;95615.50;;;9.49;75.54
22647;BME280;11490;42.726;23.268;2023-03-18T08:45:55;95615.78;;;8.29;70.85
22647;BME280;11490;42.726;23.268;2023-03-18T08:48:23;95636.38;;;9.03;70.19
22647;BME280;11490;42.726;23.268;2023-03-18T08:50:48;95605.06;;;9.05;68.29
22647;BME280;11490;42.726;23.268;2023-03-18T08:53:14;95610.59;;;8.47;66.84
22647;BME280;11490;42.726;23.268;2023-03-18T08:55:40;95639.13;;;8.96;68.96
22647;BME280;11490;42.726;23.268;2023-03-18T08:58:06;95612.97;;;9.36;69.84
22647;BME280;11490;42.726;23.268;2023-03-18T09:00:39;95634.00;;;9.19;68.24
22647;BME280;11490;42.726;23.268;2023-03-18T09:03:06;95625.09;;;10.05;66.59
22647;BME280;11490;42.726;23.268;2023-03-18T09:05:34;95619.28;;;10.86;67.25
22647;BME280;11490;42.726;23.268;2023-03-18T09:08:11;95649.28;;;10.70;61.22
22647;BME280;11490;42.726;23.268;2023-03-18T09:10:56;95627.13;;;11.23;62.75
22647;BME280;11490;42.726;23.268;2023-03-18T09:13:22;95620.44;;;10.19;64.21
22647;BME280;11490;42.726;23.268;2023-03-18T09:15:48;95626.63;;;10.61;65.32
22647;BME280;11490;42.726;23.268;2023-03-18T09:18:15;95612.34;;;10.07;65.14
22647;BME280;11490;42.726;23.268;2023-03-18T09:20:44;95607.56;;;10.75;65.52
22647;BME280;11490;42.726;23.268;2023-03-18T09:23:11;95636.97;;;10.69;59.26
22647;BME280;11490;42.726;23.268;2023-03-18T09:25:38;95609.69;;;11.20;63.14
22647;BME280;11490;42.726;23.268;2023-03-18T09:28:03;95617.69;;;11.55;56.38
22647;BME280;11490;42.726;23.268;2023-03-18T09:30:30;95628.16;;;11.56;53.05
22647;BME280;11490;42.726;23.268;2023-03-18T09:32:56;95631.25;;;12.12;58.82
22647;BME280;11490;42.726;23.268;2023-03-18T09:35:22;95632.72;;;12.31;57.24
22647;BME280;11490;42.726;23.268;2023-03-18T09:37:48;95623.53;;;11.75;53.31
22647;BME280;11490;42.726;23.268;2023-03-18T09:40:33;95634.69;;;10.72;56.19
22647;BME280;11490;42.726;23.268;2023-03-18T09:56:42;95619.06;;;11.92;51.17
22647;BME280;11490;42.726;23.268;2023-03-18T09:59:23;95604.13;;;11.33;54.51
22647;BME280;11490;42.726;23.268;2023-03-18T10:01:52;95625.03;;;11.48;51.65
22647;BME280;11490;42.726;23.268;2023-03-18T10:04:21;95612.81;;;11.05;57.56
22647;BME280;11490;42.726;23.268;2023-03-18T10:06:51;95608.31;;;11.29;54.16
22647;BME280;11490;42.726;23.268;2023-03-18T10:09:30;95623.59;;;11.10;53.32
22647;BME280;11490;42.726;23.268;2023-03-18T10:12:20;95618.84;;;12.34;56.54
22647;BME280;11490;42.726;23.268;2023-03-18T10:15:21;95617.09;;;12.85;53.19
22647;BME280;11490;42.726;23.268;2023-03-18T10:17:59;95617.19;;;11.93;49.87
22647;BME280;11490;42.726;23.268;2023-03-18T10:26:19;95608.88;;;11.19;49.55
22647;BME280;11490;42.726;23.268;2023-03-18T10:33:58;95621.69;;;12.72;53.00
22647;BME280;11490;42.726;23.268;2023-03-18T10:36:37;95612.50;;;12.52;50.79
22647;BME280;11490;42.726;23.268;2023-03-18T10:39:14;95619.69;;;12.80;50.86
22647;BME280;11490;42.726;23.268;2023-03-18T10:41:40;95601.44;;;12.77;51.19
22647;BME280;11490;42.726;23.268;2023-03-18T10:44:19;95609.09;;;12.56;52.45
22647;BME280;11490;42.726;23.268;2023-03-18T10:46:56;95609.56;;;12.25;53.65
22647;BME280;11490;42.726;23.268;2023-03-18T10:49:27;95595.63;;;11.83;54.00
22647;BME280;11490;42.726;23.268;2023-03-18T10:52:01;95601.34;;;11.75;52.48
22647;BME280;11490;42.726;23.268;2023-03-18T10:54:48;95576.59;;;11.09;53.13
22647;BME280;11490;42.726;23.268;2023-03-18T10:57:18;95614.91;;;11.15;54.31
22647;BME280;11490;42.726;23.268;2023-03-18T10:59:44;95610.34;;;10.92;54.68
22647;BME280;11490;42.726;23.268;2023-03-18T11:02:33;95580.72;;;10.59;55.52
22647;BME280;11490;42.726;23.268;2023-03-18T11:05:27;95608.31;;;10.53;55.64
22647;BME280;11490;42.726;23.268;2023-03-18T11:07:59;95595.19;;;10.21;55.81
22647;BME280;11490;42.726;23.268;2023-03-18T11:10:32;95601.38;;;10.15;55.83
22647;BME280;11490;42.726;23.268;2023-03-18T11:13:00;95591.19;;;10.12;56.25
22647;BME280;11490;42.726;23.268;2023-03-18T11:15:28;95591.34;;;9.99;55.24
22647;BME280;11490;42.726;23.268;2023-03-18T11:18:00;95585.88;;;9.94;55.14
22647;BME280;11490;42.726;23.268;2023-03-18T11:23:05;95595.66;;;9.82;54.43
22647;BME280;11490;42.726;23.268;2023-03-18T11:25:38;95600.09;;;9.88;55.01
22647;BME280;11490;42.726;23.268;2023-03-18T11:28:05;95602.41;;;9.66;50.95
22647;BME280;11490;42.726;23.268;2023-03-18T11:30:55;95594.94;;;9.56;49.26
22647;BME280;11490;42.726;23.268;2023-03-18T11:33:28;95596.69;;;9.81;50.03
22647;BME280;11490;42.726;23.268;2023-03-18T11:36:06;95595.88;;;9.98;47.58
22647;BME280;11490;42.726;23.268;2023-03-18T11:38:34;95564.44;;;9.89;48.25
22647;BME280;11490;42.726;23.268;2023-03-18T11:41:12;95590.00;;;10.26;47.65
22647;BME280;11490;42.726;23.268;2023-03-18T11:43:38;95571.22;;;10.21;47.76
22647;BME280;11490;42.726;23.268;2023-03-18T11:46:21;95589.03;;;10.51;46.56
22647;BME280;11490;42.726;23.268;2023-03-18T11:48:48;95556.91;;;9.68;45.97
22647;BME280;11490;42.726;23.268;2023-03-18T11:54:07;95591.53;;;10.16;45.41
22647;BME280;11490;42.726;23.268;2023-03-18T11:56:47;95576.97;;;10.00;47.52
22647;BME280;11490;42.726;23.268;2023-03-18T12:02:32;95594.00;;;10.17;48.68
22647;BME280;11490;42.726;23.268;2023-03-18T12:05:09;95584.78;;;10.31;47.38
22647;BME280;11490;42.726;23.268;2023-03-18T12:10:33;95591.63;;;10.09;46.04
22647;BME280;11490;42.726;23.268;2023-03-18T12:15:44;95588.06;;;10.33;44.74
22647;BME280;11490;42.726;23.268;2023-03-18T12:22:11;95586.31;;;10.39;46.10
22647;BME280;11490;42.726;23.268;2023-03-18T12:29:51;95568.06;;;10.24;45.24
22647;BME280;11490;42.726;23.268;2023-03-18T12:35:28;95573.91;;;10.15;45.39
22647;BME280;11490;42.726;23.268;2023-03-18T12:40:41;95574.84;;;10.38;47.39
22647;BME280;11490;42.726;23.268;2023-03-18T12:43:42;95560.63;;;10.56;44.51
22647;BME280;11490;42.726;23.268;2023-03-18T12:46:25;95556.56;;;10.54;44.72
22647;BME280;11490;42.726;23.268;2023-03-18T12:49:11;95555.84;;;10.47;44.12
22647;BME280;11490;42.726;23.268;2023-03-18T12:51:47;95564.03;;;10.22;41.93
22647;BME280;11490;42.726;23.268;2023-03-18T12:54:22;95564.66;;;10.35;42.73
22647;BME280;11490;42.726;23.268;2023-03-18T12:56:51;95563.63;;;10.48;43.53
22647;BME280;11490;42.726;23.268;2023-03-18T13:04:58;95551.38;;;10.17;41.27
22647;BME280;11490;42.726;23.268;2023-03-18T13:10:33;95551.34;;;10.47;44.92
22647;BME280;11490;42.726;23.268;2023-03-18T13:13:02;95565.25;;;10.37;44.06
22647;BME280;11490;42.726;23.268;2023-03-18T13:15:43;95577.25;;;10.70;43.13
22647;BME280;11490;42.726;23.268;2023-03-18T13:18:30;95580.00;;;10.52;44.38
22647;BME280;11490;42.726;23.268;2023-03-18T13:20:58;95569.06;;;10.41;46.38
22647;BME280;11490;42.726;23.268;2023-03-18T13:31:32;95583.31;;;10.35;43.66
22647;BME280;11490;42.726;23.268;2023-03-18T13:39:52;95548.25;;;10.02;43.79
22647;BME280;11490;42.726;23.268;2023-03-18T13:42:24;95580.19;;;10.38;43.86
22647;BME280;11490;42.726;23.268;2023-03-18T13:47:42;95554.91;;;10.29;42.95
22647;BME280;11490;42.726;23.268;2023-03-18T13:52:44;95554.88;;;10.71;44.63
22647;BME280;11490;42.726;23.268;2023-03-18T13:58:16;95542.50;;;10.05;42.10
22647;BME280;11490;42.726;23.268;2023-03-18T14:00:43;95554.69;;;10.43;43.25
22647;BME280;11490;42.726;23.268;2023-03-18T14:03:28;95555.69;;;10.30;42.49
22647;BME280;11490;42.726;23.268;2023-03-18T14:16:14;95547.25;;;9.85;43.11
22647;BME280;11490;42.726;23.268;2023-03-18T14:18:55;95554.38;;;9.91;42.52
22647;BME280;11490;42.726;23.268;2023-03-18T14:21:26;95539.34;;;10.26;44.13
22647;BME280;11490;42.726;23.268;2023-03-18T14:26:34;95526.13;;;10.31;43.36
22647;BME280;11490;42.726;23.268;2023-03-18T14:34:12;95547.94;;;10.28;43.20
22647;BME280;11490;42.726;23.268;2023-03-18T14:39:39;95532.38;;;10.25;43.45
22647;BME280;11490;42.726;23.268;2023-03-18T14:44:58;95512.00;;;10.01;43.07
22647;BME280;11490;42.726;23.268;2023-03-18T14:50:18;95554.31;;;10.09;42.02
22647;BME280;11490;42.726;23.268;2023-03-18T14:52:53;95574.19;;;9.95;41.46
22647;BME280;11490;42.726;23.268;2023-03-18T14:55:31;95551.84;;;9.96;42.38
22647;BME280;11490;42.726;23.268;2023-03-18T14:57:57;95546.63;;;10.01;42.54
22647;BME280;11490;42.726;23.268;2023-03-18T15:00:23;95566.94;;;9.84;41.48